sensor_id;sensor_type;location;lat;lon;timestamp;P1;durP1;ratioP1;P2;durP2;ratioP2
14241;SDS011;7205;50.864;12.766;2023-10-19T00:00:45;7.03;;;6.37;;
14241;SDS011;7205;50.864;12.766;2023-10-19T00:03:17;7.20;;;6.50;;
14241;SDS011;7205;50.864;12.766;2023-10-19T00:05:44;7.67;;;6.87;;
14241;SDS011;7205;50.864;12.766;2023-10-19T00:08:11;6.87;;;6.33;;
14241;SDS011;7205;50.864;12.766;2023-10-19T00:10:43;8.73;;;6.30;;
14241;SDS011;7205;50.864;12.766;2023-10-19T00:13:13;6.80;;;6.10;;
14241;SDS011;7205;50.864;12.766;2023-10-19T00:15:41;9.97;;;6.90;;
14241;SDS011;7205;50.864;12.766;2023-10-19T00:18:13;6.80;;;6.27;;
14241;SDS011;7205;50.864;12.766;2023-10-19T00:20:52;6.77;;;5.93;;
14241;SDS011;7205;50.864;12.766;2023-10-19T00:23:24;6.77;;;6.13;;
14241;SDS011;7205;50.864;12.766;2023-10-19T00:25:56;8.70;;;6.00;;
14241;SDS011;7205;50.864;12.766;2023-10-19T00:28:22;7.77;;;5.80;;
14241;SDS011;7205;50.864;12.766;2023-10-19T00:30:51;6.03;;;5.50;;
14241;SDS011;7205;50.864;12.766;2023-10-19T00:33:18;7.40;;;6.73;;
14241;SDS011;7205;50.864;12.766;2023-10-19T00:35:47;7.57;;;6.53;;
14241;SDS011;7205;50.864;12.766;2023-10-19T00:38:23;7.17;;;6.27;;
14241;SDS011;7205;50.864;12.766;2023-10-19T00:41:04;7.47;;;5.97;;
14241;SDS011;7205;50.864;12.766;2023-10-19T00:43:32;6.70;;;5.77;;
14241;SDS011;7205;50.864;12.766;2023-10-19T00:46:02;8.40;;;6.57;;
14241;SDS011;7205;50.864;12.766;2023-10-19T00:48:33;6.30;;;5.70;;
14241;SDS011;7205;50.864;12.766;2023-10-19T00:51:01;6.97;;;6.37;;
14241;SDS011;7205;50.864;12.766;2023-10-19T00:53:40;6.77;;;6.07;;
14241;SDS011;7205;50.864;12.766;2023-10-19T00:56:08;7.30;;;6.53;;
14241;SDS011;7205;50.864;12.766;2023-10-19T00:58:36;8.50;;;6.80;;
14241;SDS011;7205;50.864;12.766;2023-10-19T01:01:06;7.53;;;6.43;;
14241;SDS011;7205;50.864;12.766;2023-10-19T01:03:34;10.83;;;7.17;;
14241;SDS011;7205;50.864;12.766;2023-10-19T01:06:04;6.53;;;5.93;;
14241;SDS011;7205;50.864;12.766;2023-10-19T01:08:40;7.67;;;6.40;;
14241;SDS011;7205;50.864;12.766;2023-10-19T01:11:10;7.10;;;6.40;;
14241;SDS011;7205;50.864;12.766;2023-10-19T01:13:40;6.53;;;5.97;;
14241;SDS011;7205;50.864;12.766;2023-10-19T01:16:13;6.97;;;6.20;;
14241;SDS011;7205;50.864;12.766;2023-10-19T01:18:48;7.30;;;6.60;;
14241;SDS011;7205;50.864;12.766;2023-10-19T01:21:19;7.20;;;6.60;;
14241;SDS011;7205;50.864;12.766;2023-10-19T01:23:52;8.47;;;6.23;;
14241;SDS011;7205;50.864;12.766;2023-10-19T01:26:18;7.00;;;6.40;;
14241;SDS011;7205;50.864;12.766;2023-10-19T01:28:51;6.90;;;6.17;;
14241;SDS011;7205;50.864;12.766;2023-10-19T01:31:24;7.10;;;6.53;;
14241;SDS011;7205;50.864;12.766;2023-10-19T01:33:56;7.07;;;6.33;;
14241;SDS011;7205;50.864;12.766;2023-10-19T01:36:23;6.40;;;5.80;;
14241;SDS011;7205;50.864;12.766;2023-10-19T01:38:52;6.50;;;6.00;;
14241;SDS011;7205;50.864;12.766;2023-10-19T01:41:19;6.63;;;5.70;;
14241;SDS011;7205;50.864;12.766;2023-10-19T01:43:47;7.10;;;5.83;;
14241;SDS011;7205;50.864;12.766;2023-10-19T01:46:16;8.10;;;7.30;;
14241;SDS011;7205;50.864;12.766;2023-10-19T01:48:48;7.77;;;6.93;;
14241;SDS011;7205;50.864;12.766;2023-10-19T01:51:19;7.93;;;7.13;;
14241;SDS011;7205;50.864;12.766;2023-10-19T01:53:46;8.93;;;7.33;;
14241;SDS011;7205;50.864;12.766;2023-10-19T01:56:14;7.33;;;6.67;;
14241;SDS011;7205;50.864;12.766;2023-10-19T01:58:43;7.60;;;6.80;;
14241;SDS011;7205;50.864;12.766;2023-10-19T02:01:12;9.30;;;6.87;;
14241;SDS011;7205;50.864;12.766;2023-10-19T02:03:46;7.70;;;7.00;;
14241;SDS011;7205;50.864;12.766;2023-10-19T02:06:25;7.43;;;6.60;;
14241;SDS011;7205;50.864;12.766;2023-10-19T02:09:11;9.10;;;7.77;;
14241;SDS011;7205;50.864;12.766;2023-10-19T02:11:51;8.20;;;7.40;;
14241;SDS011;7205;50.864;12.766;2023-10-19T02:14:24;10.03;;;7.23;;
14241;SDS011;7205;50.864;12.766;2023-10-19T02:16:54;7.60;;;6.83;;
14241;SDS011;7205;50.864;12.766;2023-10-19T02:19:26;8.00;;;7.20;;
14241;SDS011;7205;50.864;12.766;2023-10-19T02:22:02;8.43;;;7.63;;
14241;SDS011;7205;50.864;12.766;2023-10-19T02:24:54;9.33;;;7.70;;
14241;SDS011;7205;50.864;12.766;2023-10-19T02:27:48;8.53;;;7.73;;
14241;SDS011;7205;50.864;12.766;2023-10-19T02:30:28;11.10;;;8.00;;
14241;SDS011;7205;50.864;12.766;2023-10-19T02:33:04;8.60;;;7.80;;
14241;SDS011;7205;50.864;12.766;2023-10-19T02:35:42;10.47;;;7.97;;
14241;SDS011;7205;50.864;12.766;2023-10-19T02:38:22;8.87;;;7.97;;
14241;SDS011;7205;50.864;12.766;2023-10-19T02:41:12;11.67;;;8.00;;
14241;SDS011;7205;50.864;12.766;2023-10-19T02:43:47;10.17;;;8.60;;
14241;SDS011;7205;50.864;12.766;2023-10-19T02:46:55;8.63;;;7.83;;
14241;SDS011;7205;50.864;12.766;2023-10-19T02:49:44;9.57;;;8.60;;
14241;SDS011;7205;50.864;12.766;2023-10-19T02:52:21;10.07;;;9.00;;
14241;SDS011;7205;50.864;12.766;2023-10-19T02:54:53;8.80;;;7.90;;
14241;SDS011;7205;50.864;12.766;2023-10-19T02:57:31;9.43;;;8.40;;
14241;SDS011;7205;50.864;12.766;2023-10-19T03:00:06;9.67;;;8.50;;
14241;SDS011;7205;50.864;12.766;2023-10-19T03:02:39;9.40;;;8.50;;
14241;SDS011;7205;50.864;12.766;2023-10-19T03:05:14;9.07;;;8.17;;
14241;SDS011;7205;50.864;12.766;2023-10-19T03:07:43;10.43;;;8.50;;
14241;SDS011;7205;50.864;12.766;2023-10-19T03:10:14;9.93;;;9.03;;
14241;SDS011;7205;50.864;12.766;2023-10-19T03:12:49;9.60;;;8.70;;
14241;SDS011;7205;50.864;12.766;2023-10-19T03:15:17;9.60;;;8.70;;
14241;SDS011;7205;50.864;12.766;2023-10-19T03:17:48;9.27;;;8.40;;
14241;SDS011;7205;50.864;12.766;2023-10-19T03:20:16;10.40;;;9.33;;
14241;SDS011;7205;50.864;12.766;2023-10-19T03:22:49;9.40;;;8.50;;
14241;SDS011;7205;50.864;12.766;2023-10-19T03:25:16;10.67;;;9.53;;
14241;SDS011;7205;50.864;12.766;2023-10-19T03:27:57;10.13;;;9.13;;
14241;SDS011;7205;50.864;12.766;2023-10-19T03:30:33;9.87;;;8.87;;
14241;SDS011;7205;50.864;12.766;2023-10-19T03:33:04;10.77;;;9.67;;
14241;SDS011;7205;50.864;12.766;2023-10-19T03:35:32;9.90;;;8.90;;
14241;SDS011;7205;50.864;12.766;2023-10-19T03:38:01;10.33;;;9.33;;
14241;SDS011;7205;50.864;12.766;2023-10-19T03:40:33;10.37;;;9.27;;
14241;SDS011;7205;50.864;12.766;2023-10-19T03:43:04;12.23;;;9.73;;
14241;SDS011;7205;50.864;12.766;2023-10-19T03:45:43;10.17;;;8.97;;
14241;SDS011;7205;50.864;12.766;2023-10-19T03:48:17;11.33;;;10.23;;
14241;SDS011;7205;50.864;12.766;2023-10-19T03:50:49;14.00;;;9.80;;
14241;SDS011;7205;50.864;12.766;2023-10-19T03:53:17;10.63;;;9.60;;
14241;SDS011;7205;50.864;12.766;2023-10-19T03:55:46;11.00;;;9.60;;
14241;SDS011;7205;50.864;12.766;2023-10-19T03:58:15;10.30;;;9.40;;
14241;SDS011;7205;50.864;12.766;2023-10-19T04:00:47;11.53;;;9.60;;
14241;SDS011;7205;50.864;12.766;2023-10-19T04:03:23;10.63;;;9.63;;
14241;SDS011;7205;50.864;12.766;2023-10-19T04:05:55;10.57;;;9.50;;
14241;SDS011;7205;50.864;12.766;2023-10-19T04:08:25;10.20;;;9.20;;
14241;SDS011;7205;50.864;12.766;2023-10-19T04:10:58;10.47;;;9.47;;
14241;SDS011;7205;50.864;12.766;2023-10-19T04:13:49;10.03;;;9.00;;
14241;SDS011;7205;50.864;12.766;2023-10-19T04:16:26;11.50;;;10.27;;
14241;SDS011;7205;50.864;12.766;2023-10-19T04:19:02;10.23;;;9.23;;
14241;SDS011;7205;50.864;12.766;2023-10-19T04:21:41;11.83;;;10.03;;
14241;SDS011;7205;50.864;12.766;2023-10-19T04:24:15;11.27;;;10.13;;
14241;SDS011;7205;50.864;12.766;2023-10-19T04:26:47;10.07;;;9.07;;
14241;SDS011;7205;50.864;12.766;2023-10-19T04:29:35;10.70;;;8.40;;
14241;SDS011;7205;50.864;12.766;2023-10-19T04:32:40;11.27;;;10.17;;
14241;SDS011;7205;50.864;12.766;2023-10-19T04:38:07;10.57;;;9.53;;
14241;SDS011;7205;50.864;12.766;2023-10-19T04:41:24;11.27;;;9.83;;
14241;SDS011;7205;50.864;12.766;2023-10-19T04:46:59;10.73;;;9.57;;
14241;SDS011;7205;50.864;12.766;2023-10-19T04:49:58;10.67;;;9.67;;
14241;SDS011;7205;50.864;12.766;2023-10-19T04:52:30;10.20;;;9.20;;
14241;SDS011;7205;50.864;12.766;2023-10-19T04:55:05;11.13;;;10.03;;
14241;SDS011;7205;50.864;12.766;2023-10-19T04:57:45;12.23;;;10.93;;
14241;SDS011;7205;50.864;12.766;2023-10-19T05:00:59;11.93;;;10.73;;
14241;SDS011;7205;50.864;12.766;2023-10-19T05:04:53;11.57;;;10.40;;
14241;SDS011;7205;50.864;12.766;2023-10-19T05:11:37;11.80;;;10.70;;
14241;SDS011;7205;50.864;12.766;2023-10-19T05:56:36;10.70;;;9.43;;
14241;SDS011;7205;50.864;12.766;2023-10-19T05:59:17;10.00;;;9.10;;
14241;SDS011;7205;50.864;12.766;2023-10-19T06:02:11;10.03;;;9.07;;
14241;SDS011;7205;50.864;12.766;2023-10-19T06:38:28;7.60;;;6.90;;
14241;SDS011;7205;50.864;12.766;2023-10-19T06:40:56;8.27;;;7.40;;
14241;SDS011;7205;50.864;12.766;2023-10-19T06:43:24;6.87;;;6.27;;
14241;SDS011;7205;50.864;12.766;2023-10-19T06:45:53;7.77;;;6.97;;
14241;SDS011;7205;50.864;12.766;2023-10-19T06:48:21;6.87;;;6.27;;
14241;SDS011;7205;50.864;12.766;2023-10-19T06:50:49;7.70;;;7.00;;
14241;SDS011;7205;50.864;12.766;2023-10-19T06:53:16;7.37;;;6.77;;
14241;SDS011;7205;50.864;12.766;2023-10-19T06:55:43;7.30;;;6.70;;
14241;SDS011;7205;50.864;12.766;2023-10-19T06:58:10;6.97;;;6.40;;
14241;SDS011;7205;50.864;12.766;2023-10-19T07:00:40;7.03;;;6.40;;
14241;SDS011;7205;50.864;12.766;2023-10-19T07:03:08;6.93;;;6.40;;
14241;SDS011;7205;50.864;12.766;2023-10-19T07:05:36;6.73;;;6.23;;
14241;SDS011;7205;50.864;12.766;2023-10-19T07:08:06;6.50;;;6.00;;
14241;SDS011;7205;50.864;12.766;2023-10-19T07:10:33;7.80;;;7.10;;
14241;SDS011;7205;50.864;12.766;2023-10-19T07:13:01;7.00;;;6.40;;
14241;SDS011;7205;50.864;12.766;2023-10-19T07:15:30;6.37;;;5.77;;
14241;SDS011;7205;50.864;12.766;2023-10-19T07:17:59;7.10;;;6.50;;
14241;SDS011;7205;50.864;12.766;2023-10-19T07:20:26;8.20;;;7.40;;
14241;SDS011;7205;50.864;12.766;2023-10-19T07:22:55;6.57;;;6.07;;
14241;SDS011;7205;50.864;12.766;2023-10-19T07:25:26;6.73;;;6.23;;
14241;SDS011;7205;50.864;12.766;2023-10-19T07:27:56;11.00;;;6.43;;
14241;SDS011;7205;50.864;12.766;2023-10-19T07:30:25;8.37;;;6.77;;
14241;SDS011;7205;50.864;12.766;2023-10-19T07:32:52;7.87;;;6.80;;
14241;SDS011;7205;50.864;12.766;2023-10-19T07:35:23;7.03;;;6.33;;
14241;SDS011;7205;50.864;12.766;2023-10-19T07:37:57;7.10;;;6.40;;
14241;SDS011;7205;50.864;12.766;2023-10-19T07:40:24;7.63;;;6.90;;
14241;SDS011;7205;50.864;12.766;2023-10-19T07:42:52;6.53;;;6.00;;
14241;SDS011;7205;50.864;12.766;2023-10-19T07:45:25;6.67;;;6.13;;
14241;SDS011;7205;50.864;12.766;2023-10-19T07:48:17;18.20;;;16.50;;
14241;SDS011;7205;50.864;12.766;2023-10-19T07:50:49;7.13;;;6.47;;
14241;SDS011;7205;50.864;12.766;2023-10-19T07:53:31;6.60;;;5.93;;
14241;SDS011;7205;50.864;12.766;2023-10-19T07:55:58;6.50;;;6.00;;
14241;SDS011;7205;50.864;12.766;2023-10-19T07:58:31;7.03;;;6.43;;
14241;SDS011;7205;50.864;12.766;2023-10-19T08:01:01;6.70;;;6.07;;
14241;SDS011;7205;50.864;12.766;2023-10-19T08:03:31;7.30;;;6.60;;
14241;SDS011;7205;50.864;12.766;2023-10-19T08:06:00;21.43;;;8.70;;
14241;SDS011;7205;50.864;12.766;2023-10-19T08:08:29;8.13;;;6.27;;
14241;SDS011;7205;50.864;12.766;2023-10-19T08:11:02;9.17;;;6.53;;
14241;SDS011;7205;50.864;12.766;2023-10-19T08:13:29;6.73;;;6.23;;
14241;SDS011;7205;50.864;12.766;2023-10-19T08:15:58;9.80;;;6.97;;
14241;SDS011;7205;50.864;12.766;2023-10-19T08:18:28;6.60;;;6.07;;
14241;SDS011;7205;50.864;12.766;2023-10-19T08:20:56;6.37;;;5.87;;
14241;SDS011;7205;50.864;12.766;2023-10-19T08:23:23;6.77;;;6.27;;
14241;SDS011;7205;50.864;12.766;2023-10-19T08:25:52;7.30;;;6.60;;
14241;SDS011;7205;50.864;12.766;2023-10-19T08:28:20;7.17;;;6.47;;
14241;SDS011;7205;50.864;12.766;2023-10-19T08:30:47;7.90;;;7.00;;
14241;SDS011;7205;50.864;12.766;2023-10-19T08:33:24;6.63;;;6.23;;
14241;SDS011;7205;50.864;12.766;2023-10-19T08:35:52;7.73;;;7.03;;
14241;SDS011;7205;50.864;12.766;2023-10-19T08:38:20;7.60;;;6.90;;
14241;SDS011;7205;50.864;12.766;2023-10-19T08:41:01;8.47;;;6.30;;
14241;SDS011;7205;50.864;12.766;2023-10-19T08:56:02;6.77;;;6.20;;
14241;SDS011;7205;50.864;12.766;2023-10-19T08:59:18;6.80;;;6.20;;
14241;SDS011;7205;50.864;12.766;2023-10-19T09:02:06;6.77;;;6.17;;
14241;SDS011;7205;50.864;12.766;2023-10-19T09:09:07;7.60;;;7.00;;
14241;SDS011;7205;50.864;12.766;2023-10-19T09:24:50;8.10;;;7.30;;
14241;SDS011;7205;50.864;12.766;2023-10-19T09:30:29;7.93;;;6.73;;
14241;SDS011;7205;50.864;12.766;2023-10-19T09:31:58;6.97;;;6.27;;
14241;SDS011;7205;50.864;12.766;2023-10-19T09:34:56;6.87;;;6.37;;
14241;SDS011;7205;50.864;12.766;2023-10-19T09:38:08;7.07;;;6.37;;
14241;SDS011;7205;50.864;12.766;2023-10-19T09:41:14;6.97;;;6.47;;
14241;SDS011;7205;50.864;12.766;2023-10-19T09:47:17;7.20;;;6.70;;
14241;SDS011;7205;50.864;12.766;2023-10-19T09:49:53;7.53;;;6.90;;
14241;SDS011;7205;50.864;12.766;2023-10-19T09:52:21;7.30;;;6.60;;
14241;SDS011;7205;50.864;12.766;2023-10-19T09:54:54;7.20;;;6.70;;
14241;SDS011;7205;50.864;12.766;2023-10-19T09:57:28;7.33;;;6.60;;
14241;SDS011;7205;50.864;12.766;2023-10-19T10:00:03;7.00;;;6.40;;
14241;SDS011;7205;50.864;12.766;2023-10-19T10:02:39;7.00;;;6.17;;
14241;SDS011;7205;50.864;12.766;2023-10-19T10:08:29;6.57;;;5.93;;
14241;SDS011;7205;50.864;12.766;2023-10-19T10:10:58;6.40;;;5.90;;
14241;SDS011;7205;50.864;12.766;2023-10-19T10:13:42;6.57;;;6.07;;
14241;SDS011;7205;50.864;12.766;2023-10-19T10:16:16;6.10;;;5.60;;
14241;SDS011;7205;50.864;12.766;2023-10-19T10:18:44;6.37;;;5.67;;
14241;SDS011;7205;50.864;12.766;2023-10-19T10:21:15;5.97;;;5.47;;
14241;SDS011;7205;50.864;12.766;2023-10-19T10:23:44;5.43;;;5.03;;
14241;SDS011;7205;50.864;12.766;2023-10-19T10:26:14;5.97;;;5.57;;
14241;SDS011;7205;50.864;12.766;2023-10-19T10:28:45;5.50;;;5.10;;
14241;SDS011;7205;50.864;12.766;2023-10-19T10:31:13;5.50;;;5.20;;
14241;SDS011;7205;50.864;12.766;2023-10-19T10:33:42;5.20;;;4.90;;
14241;SDS011;7205;50.864;12.766;2023-10-19T10:36:13;5.63;;;5.10;;
14241;SDS011;7205;50.864;12.766;2023-10-19T10:38:42;5.23;;;4.83;;
14241;SDS011;7205;50.864;12.766;2023-10-19T10:41:09;4.73;;;4.40;;
14241;SDS011;7205;50.864;12.766;2023-10-19T10:43:50;5.23;;;4.80;;
14241;SDS011;7205;50.864;12.766;2023-10-19T10:46:22;7.20;;;6.53;;
14241;SDS011;7205;50.864;12.766;2023-10-19T10:48:50;4.80;;;4.40;;
14241;SDS011;7205;50.864;12.766;2023-10-19T10:51:18;4.00;;;3.80;;
14241;SDS011;7205;50.864;12.766;2023-10-19T10:53:49;4.20;;;4.00;;
14241;SDS011;7205;50.864;12.766;2023-10-19T10:56:17;3.87;;;3.67;;
14241;SDS011;7205;50.864;12.766;2023-10-19T10:58:45;6.77;;;6.27;;
14241;SDS011;7205;50.864;12.766;2023-10-19T11:01:13;9.50;;;8.60;;
14241;SDS011;7205;50.864;12.766;2023-10-19T11:03:40;4.10;;;3.90;;
14241;SDS011;7205;50.864;12.766;2023-10-19T11:06:11;3.70;;;3.37;;
14241;SDS011;7205;50.864;12.766;2023-10-19T11:08:38;5.50;;;5.03;;
14241;SDS011;7205;50.864;12.766;2023-10-19T11:11:06;3.13;;;2.93;;
14241;SDS011;7205;50.864;12.766;2023-10-19T11:13:36;3.90;;;3.70;;
14241;SDS011;7205;50.864;12.766;2023-10-19T11:16:03;4.17;;;3.97;;
14241;SDS011;7205;50.864;12.766;2023-10-19T11:18:37;3.80;;;3.53;;
14241;SDS011;7205;50.864;12.766;2023-10-19T11:21:06;4.33;;;3.80;;
14241;SDS011;7205;50.864;12.766;2023-10-19T11:23:35;4.30;;;4.00;;
14241;SDS011;7205;50.864;12.766;2023-10-19T11:26:06;4.37;;;4.07;;
14241;SDS011;7205;50.864;12.766;2023-10-19T11:28:33;4.57;;;4.27;;
14241;SDS011;7205;50.864;12.766;2023-10-19T11:31:10;6.40;;;5.90;;
14241;SDS011;7205;50.864;12.766;2023-10-19T11:33:40;4.87;;;4.57;;
14241;SDS011;7205;50.864;12.766;2023-10-19T11:36:07;5.10;;;4.60;;
14241;SDS011;7205;50.864;12.766;2023-10-19T11:38:38;3.77;;;3.57;;
14241;SDS011;7205;50.864;12.766;2023-10-19T11:41:08;3.13;;;3.00;;
14241;SDS011;7205;50.864;12.766;2023-10-19T11:43:35;4.33;;;4.07;;
14241;SDS011;7205;50.864;12.766;2023-10-19T11:46:02;3.30;;;3.00;;
14241;SDS011;7205;50.864;12.766;2023-10-19T11:48:30;3.67;;;3.40;;
14241;SDS011;7205;50.864;12.766;2023-10-19T11:50:59;5.70;;;4.53;;
14241;SDS011;7205;50.864;12.766;2023-10-19T11:53:29;4.10;;;3.80;;
14241;SDS011;7205;50.864;12.766;2023-10-19T11:55:58;3.77;;;3.57;;
14241;SDS011;7205;50.864;12.766;2023-10-19T11:58:26;3.80;;;3.50;;
14241;SDS011;7205;50.864;12.766;2023-10-19T12:00:52;3.47;;;3.23;;
14241;SDS011;7205;50.864;12.766;2023-10-19T12:03:20;4.03;;;3.73;;
14241;SDS011;7205;50.864;12.766;2023-10-19T12:05:47;3.93;;;3.63;;
14241;SDS011;7205;50.864;12.766;2023-10-19T12:08:15;3.40;;;3.10;;
14241;SDS011;7205;50.864;12.766;2023-10-19T12:10:42;3.33;;;3.13;;
14241;SDS011;7205;50.864;12.766;2023-10-19T12:13:09;4.10;;;3.73;;
14241;SDS011;7205;50.864;12.766;2023-10-19T12:15:36;3.90;;;3.60;;
14241;SDS011;7205;50.864;12.766;2023-10-19T12:18:03;8.30;;;7.50;;
14241;SDS011;7205;50.864;12.766;2023-10-19T12:20:30;4.80;;;4.50;;
14241;SDS011;7205;50.864;12.766;2023-10-19T12:22:57;3.40;;;3.03;;
14241;SDS011;7205;50.864;12.766;2023-10-19T12:25:27;5.40;;;5.03;;
14241;SDS011;7205;50.864;12.766;2023-10-19T12:27:57;3.93;;;3.43;;
14241;SDS011;7205;50.864;12.766;2023-10-19T12:30:25;6.27;;;5.77;;
14241;SDS011;7205;50.864;12.766;2023-10-19T12:32:59;8.33;;;7.63;;
14241;SDS011;7205;50.864;12.766;2023-10-19T12:35:26;8.17;;;7.43;;
14241;SDS011;7205;50.864;12.766;2023-10-19T12:38:09;11.00;;;10.10;;
14241;SDS011;7205;50.864;12.766;2023-10-19T12:40:42;9.30;;;8.43;;
14241;SDS011;7205;50.864;12.766;2023-10-19T12:43:11;6.47;;;5.97;;
14241;SDS011;7205;50.864;12.766;2023-10-19T12:45:39;4.80;;;4.50;;
14241;SDS011;7205;50.864;12.766;2023-10-19T12:48:06;5.50;;;5.00;;
14241;SDS011;7205;50.864;12.766;2023-10-19T12:50:36;3.63;;;3.43;;
14241;SDS011;7205;50.864;12.766;2023-10-19T12:53:03;5.17;;;4.80;;
14241;SDS011;7205;50.864;12.766;2023-10-19T12:55:31;7.23;;;6.73;;
14241;SDS011;7205;50.864;12.766;2023-10-19T12:57:59;6.17;;;5.67;;
14241;SDS011;7205;50.864;12.766;2023-10-19T13:00:32;3.80;;;3.60;;
14241;SDS011;7205;50.864;12.766;2023-10-19T13:03:07;4.00;;;3.70;;
14241;SDS011;7205;50.864;12.766;2023-10-19T13:05:34;4.70;;;4.30;;
14241;SDS011;7205;50.864;12.766;2023-10-19T13:08:02;3.30;;;3.10;;
14241;SDS011;7205;50.864;12.766;2023-10-19T13:10:30;4.13;;;3.53;;
14241;SDS011;7205;50.864;12.766;2023-10-19T13:13:01;3.97;;;3.50;;
14241;SDS011;7205;50.864;12.766;2023-10-19T13:15:29;5.00;;;3.70;;
14241;SDS011;7205;50.864;12.766;2023-10-19T13:17:57;4.03;;;3.73;;
14241;SDS011;7205;50.864;12.766;2023-10-19T13:20:25;3.73;;;3.20;;
14241;SDS011;7205;50.864;12.766;2023-10-19T13:22:52;3.67;;;3.40;;
14241;SDS011;7205;50.864;12.766;2023-10-19T13:25:20;3.37;;;3.17;;
14241;SDS011;7205;50.864;12.766;2023-10-19T13:28:06;4.80;;;4.13;;
14241;SDS011;7205;50.864;12.766;2023-10-19T13:30:38;3.50;;;3.30;;
14241;SDS011;7205;50.864;12.766;2023-10-19T13:33:06;4.90;;;4.43;;
14241;SDS011;7205;50.864;12.766;2023-10-19T13:35:34;6.63;;;5.80;;
14241;SDS011;7205;50.864;12.766;2023-10-19T13:38:02;4.47;;;3.80;;
14241;SDS011;7205;50.864;12.766;2023-10-19T13:40:30;5.40;;;4.97;;
14241;SDS011;7205;50.864;12.766;2023-10-19T13:42:57;4.27;;;3.90;;
14241;SDS011;7205;50.864;12.766;2023-10-19T13:45:25;4.00;;;3.70;;
14241;SDS011;7205;50.864;12.766;2023-10-19T13:47:52;4.13;;;3.83;;
14241;SDS011;7205;50.864;12.766;2023-10-19T13:50:23;3.93;;;3.63;;
14241;SDS011;7205;50.864;12.766;2023-10-19T13:52:52;4.40;;;4.00;;
14241;SDS011;7205;50.864;12.766;2023-10-19T13:55:22;3.67;;;3.47;;
14241;SDS011;7205;50.864;12.766;2023-10-19T13:57:49;4.93;;;4.47;;
14241;SDS011;7205;50.864;12.766;2023-10-19T14:00:17;3.90;;;3.60;;
14241;SDS011;7205;50.864;12.766;2023-10-19T14:02:50;4.10;;;3.50;;
14241;SDS011;7205;50.864;12.766;2023-10-19T14:05:19;4.43;;;4.13;;
14241;SDS011;7205;50.864;12.766;2023-10-19T14:07:49;5.07;;;3.77;;
14241;SDS011;7205;50.864;12.766;2023-10-19T14:10:17;4.37;;;4.07;;
14241;SDS011;7205;50.864;12.766;2023-10-19T14:12:45;4.23;;;3.83;;
14241;SDS011;7205;50.864;12.766;2023-10-19T14:15:13;3.73;;;3.43;;
14241;SDS011;7205;50.864;12.766;2023-10-19T14:17:41;4.83;;;4.03;;
14241;SDS011;7205;50.864;12.766;2023-10-19T14:20:10;5.20;;;4.70;;
14241;SDS011;7205;50.864;12.766;2023-10-19T14:22:39;4.20;;;3.90;;
14241;SDS011;7205;50.864;12.766;2023-10-19T14:25:06;4.20;;;3.60;;
14241;SDS011;7205;50.864;12.766;2023-10-19T14:27:38;4.33;;;4.03;;
14241;SDS011;7205;50.864;12.766;2023-10-19T14:30:09;4.27;;;3.97;;
14241;SDS011;7205;50.864;12.766;2023-10-19T14:32:38;4.93;;;4.17;;
14241;SDS011;7205;50.864;12.766;2023-10-19T14:35:07;4.77;;;4.33;;
14241;SDS011;7205;50.864;12.766;2023-10-19T14:37:38;4.20;;;3.90;;
14241;SDS011;7205;50.864;12.766;2023-10-19T14:40:08;5.57;;;4.60;;
14241;SDS011;7205;50.864;12.766;2023-10-19T14:42:36;7.23;;;5.23;;
14241;SDS011;7205;50.864;12.766;2023-10-19T14:45:05;5.33;;;4.33;;
14241;SDS011;7205;50.864;12.766;2023-10-19T14:47:35;4.57;;;4.17;;
14241;SDS011;7205;50.864;12.766;2023-10-19T14:50:03;5.10;;;4.60;;
14241;SDS011;7205;50.864;12.766;2023-10-19T14:52:31;5.53;;;4.60;;
14241;SDS011;7205;50.864;12.766;2023-10-19T14:54:59;4.53;;;4.20;;
14241;SDS011;7205;50.864;12.766;2023-10-19T14:57:26;5.37;;;4.87;;
14241;SDS011;7205;50.864;12.766;2023-10-19T14:59:52;11.43;;;10.33;;
14241;SDS011;7205;50.864;12.766;2023-10-19T15:02:19;6.43;;;5.93;;
14241;SDS011;7205;50.864;12.766;2023-10-19T15:04:48;12.87;;;11.70;;
14241;SDS011;7205;50.864;12.766;2023-10-19T15:07:15;8.97;;;8.27;;
14241;SDS011;7205;50.864;12.766;2023-10-19T15:09:43;6.97;;;5.27;;
14241;SDS011;7205;50.864;12.766;2023-10-19T15:12:11;5.87;;;5.47;;
14241;SDS011;7205;50.864;12.766;2023-10-19T15:14:41;7.10;;;6.40;;
14241;SDS011;7205;50.864;12.766;2023-10-19T15:17:08;4.90;;;4.40;;
14241;SDS011;7205;50.864;12.766;2023-10-19T15:19:36;5.70;;;4.43;;
14241;SDS011;7205;50.864;12.766;2023-10-19T15:22:03;4.40;;;4.10;;
14241;SDS011;7205;50.864;12.766;2023-10-19T15:24:30;5.87;;;5.37;;
14241;SDS011;7205;50.864;12.766;2023-10-19T15:26:57;6.57;;;5.97;;
14241;SDS011;7205;50.864;12.766;2023-10-19T15:29:26;6.03;;;4.60;;
14241;SDS011;7205;50.864;12.766;2023-10-19T15:31:54;5.00;;;4.57;;
14241;SDS011;7205;50.864;12.766;2023-10-19T15:34:21;4.97;;;4.33;;
14241;SDS011;7205;50.864;12.766;2023-10-19T15:36:48;10.67;;;5.63;;
14241;SDS011;7205;50.864;12.766;2023-10-19T15:39:15;5.03;;;4.63;;
14241;SDS011;7205;50.864;12.766;2023-10-19T15:41:43;7.83;;;4.50;;
14241;SDS011;7205;50.864;12.766;2023-10-19T15:44:10;6.73;;;5.87;;
14241;SDS011;7205;50.864;12.766;2023-10-19T15:46:38;6.97;;;6.27;;
14241;SDS011;7205;50.864;12.766;2023-10-19T15:49:08;5.70;;;5.20;;
14241;SDS011;7205;50.864;12.766;2023-10-19T15:51:34;5.30;;;4.90;;
14241;SDS011;7205;50.864;12.766;2023-10-19T15:54:01;4.73;;;4.33;;
14241;SDS011;7205;50.864;12.766;2023-10-19T15:56:30;4.90;;;4.40;;
14241;SDS011;7205;50.864;12.766;2023-10-19T15:58:57;5.90;;;4.93;;
14241;SDS011;7205;50.864;12.766;2023-10-19T16:01:23;5.00;;;4.60;;
14241;SDS011;7205;50.864;12.766;2023-10-19T16:03:52;7.30;;;6.57;;
14241;SDS011;7205;50.864;12.766;2023-10-19T16:06:19;23.93;;;18.67;;
14241;SDS011;7205;50.864;12.766;2023-10-19T16:08:46;5.80;;;5.30;;
14241;SDS011;7205;50.864;12.766;2023-10-19T16:11:13;9.77;;;7.13;;
14241;SDS011;7205;50.864;12.766;2023-10-19T16:13:40;5.90;;;5.40;;
14241;SDS011;7205;50.864;12.766;2023-10-19T16:16:09;7.23;;;6.17;;
14241;SDS011;7205;50.864;12.766;2023-10-19T16:18:37;5.97;;;5.47;;
14241;SDS011;7205;50.864;12.766;2023-10-19T16:21:08;5.77;;;5.27;;
14241;SDS011;7205;50.864;12.766;2023-10-19T16:23:35;5.93;;;5.30;;
14241;SDS011;7205;50.864;12.766;2023-10-19T16:26:02;5.93;;;5.43;;
14241;SDS011;7205;50.864;12.766;2023-10-19T16:28:29;6.87;;;6.03;;
14241;SDS011;7205;50.864;12.766;2023-10-19T16:31:01;6.13;;;5.63;;
14241;SDS011;7205;50.864;12.766;2023-10-19T16:33:28;6.90;;;6.10;;
14241;SDS011;7205;50.864;12.766;2023-10-19T16:35:55;6.23;;;5.73;;
14241;SDS011;7205;50.864;12.766;2023-10-19T16:38:23;7.60;;;6.73;;
14241;SDS011;7205;50.864;12.766;2023-10-19T16:40:51;8.87;;;7.10;;
14241;SDS011;7205;50.864;12.766;2023-10-19T16:43:24;6.93;;;6.33;;
14241;SDS011;7205;50.864;12.766;2023-10-19T16:45:51;9.43;;;7.13;;
14241;SDS011;7205;50.864;12.766;2023-10-19T16:48:18;7.70;;;6.40;;
14241;SDS011;7205;50.864;12.766;2023-10-19T16:50:45;6.97;;;6.33;;
14241;SDS011;7205;50.864;12.766;2023-10-19T16:53:18;6.43;;;5.93;;
14241;SDS011;7205;50.864;12.766;2023-10-19T16:55:47;6.47;;;5.97;;
14241;SDS011;7205;50.864;12.766;2023-10-19T16:58:13;6.53;;;6.03;;
14241;SDS011;7205;50.864;12.766;2023-10-19T17:00:46;6.83;;;6.20;;
14241;SDS011;7205;50.864;12.766;2023-10-19T17:03:16;7.33;;;6.17;;
14241;SDS011;7205;50.864;12.766;2023-10-19T17:09:24;6.37;;;5.73;;
14241;SDS011;7205;50.864;12.766;2023-10-19T17:11:52;5.63;;;5.23;;
14241;SDS011;7205;50.864;12.766;2023-10-19T17:14:19;5.90;;;5.40;;
14241;SDS011;7205;50.864;12.766;2023-10-19T17:16:46;6.50;;;5.30;;
14241;SDS011;7205;50.864;12.766;2023-10-19T17:19:15;6.50;;;5.30;;
14241;SDS011;7205;50.864;12.766;2023-10-19T17:21:41;6.07;;;5.57;;